Bay State Village, Massachusetts
Current Conditions -  °F | °C
As of 5:49 PM on Monday 22 Dec 2014 (Local Time) from KCEF Reporting Station
Unknown Precip Unknown Precip  
Wind Chill:   Ceiling: 3200
Heat Index:   Visibility: 10mi
Dew Point:   Wind: 6mph
Humidity: 81%   Direction: NA
Pressure: 30.29"   Gusts: NA
Location:  42.3249°N, 72.6582°W
Report Text: KCEF 222249Z AUTO VRB05KT 10SM UP SCT026 BKN032 OVC046 04/01 A3029 RMK AO2 UPB2249
Loading
Personal Weather Stations






























Interactive Weather Map New forecast layout! Learn more

10-Day Weather Forecast

Advertisements
Track Severe Weather on mobile